Flight GFA562

  • Submitted By: Maurizio Fadda
  • Departure Airport: Bahrain International Airport (OBBI)
  • Arrival Airport: Muscat International Airport (OOMS)
  • Aircraft: A320-200 (A9C-AF)
  • Flight Time: 01.34
  • Date Submitted: 01/13/2018
  • Route: GOLKO ASTAD TOTIS RASDI VELAM VUTAN RESAR ALSEM OVONA PUTIB RURAL NAPMA ORNEL RETAS PUTSO LAKLU
  • Status: Accepted
Flight Details
Gross Revenue:
(171 load / $ 500.00 per unit
$ 85, 500.00
Fuel Cost:
(7949 fuel used @ 5.1 / unit)
$ 40, 539.90

Additional Log Information:

View Log

smartCARS version 2.1.31.0, 2018/1/13 UTC
[06:24:13] Preflight started, flying offline
[06:24:13] Flying Airbus X A320-214 Gulf Air A9C-AF
[06:47:48] Cruising altitude changed to 33000 ft
[07:01:36] Pushing back with 6621 kg of fuel
[07:04:21] Engine 2 is on
[07:05:18] Engine 1 is on
[07:07:48] Taxiing to runway
[07:12:30] Flaps set to position 2
[07:13:25] Taking off
[07:13:51] Climbing, pitch: 11, roll: level, 145 kts
[07:14:00] Gear lever raised at 150 ft at 159 kts
[07:14:44] Flaps set to position 1 at 1606 ft at 213 kts
[07:14:51] Flaps set to position 0 at 1861 ft at 221 kts
[07:29:12] Cruising at 33000ft, pitch: 3, 450 kts
[08:03:23] Descending
[08:16:57] Approaching
[08:22:20] Final approach, 231 kts
[08:24:58] Flaps set to position 1 at 1851 ft at 213 kts
[08:25:41] Flaps set to position 3 at 1772 ft at 187 kts
[08:27:08] Flaps set to position 4 at 1780 ft at 170 kts
[08:30:41] Flaps set to position 5 at 1779 ft at 160 kts
[08:31:21] Gear lever lowered at 1557 ft at 156 kts
[08:33:29] Touched down at -102 fpm, gear lever: down, pitch: 4, roll: 1 degrees right, 132 kts
[08:33:32] Aircraft bounced, touched back down at -64 fpm
[08:33:59] Landed in 3901 ft, fuel: 3043 kg, weight: 61380 kg
[08:33:59] Taxiing to gate
[08:36:10] The flight may now be ended
[08:36:10] Arrived, flight duration: 01:34
[08:38:01] Flaps set to position 4
[08:40:01] Flaps set to position 3
[08:40:12] Flaps set to position 2
[08:40:26] Flaps set to position 0
[08:40:40] Engine 2 is off
[08:40:41] Engine 1 is off

Comments

Commenter Comment
Maurizio Fadda Regular takeoff runway 30R OBBI,gate departure 13,taxy Q-RWY12R-G,no Sid,direct to after takeoff turnright to GOLKO Inters.Regular landing runway ILS26R OOMS,Star LAKLU1U,gate arrival 9.Weather:OBBI 130700Z 27008KT CAVOK 19/02 Q1022 NOSIG.......OOMS 130750Z 28004KT 210V350 CAVOK 24/04 Q1018 NOSIG.
Maurizio Fadda Please reactive my account smartcars???

Route Map

Welcome Our Latest Hires

GFA077 Tomáš Mráz Czech Republic
GFA076 Meesam Raza Saudi Arabia
GFA075 Anas Aburumman Jordan
GFA074 Ben Smith United Kingdom
GFA073 Areeb Siddiqui United States

Upcoming Departures

22 - GFA752 - OBBI to OPKC
21 - GFA106 - OEDF to OBBI
20 - GFA6922 - LSZH to OBBI

Users Online